Terminal Aerodrome Forecast
Issued by NWS

Home | Current Version | Previous Version | Graphics & Text | Print | Product List | Glossary On
Versions: 1 2 3 4 5 6 7 8 9 10 11 12 13 14 15
000
FTUS43 KBIS 172336
TAFJMS
TAF
KJMS 172336Z 1800/1824 12004KT P6SM FEW250
     FM180400 12004KT P6SM SCT070 BKN150
     FM180600 13004KT P6SM VCTS SCT070CB BKN200
     FM181100 VRB03KT P6SM FEW060 SCT150
     FM181500 32007KT P6SM FEW030 SCT100=

USA.gov is the U.S. government's official web portal to all federal, state and local government web resources and services.